Waynesville, Pennsylvania
Current Conditions -  °F | °C
As of 7:58 PM on Thursday 18 Dec 2014 (Local Time) from KMUI Reporting Station
Overcast Overcast  
Wind Chill: 28°   Ceiling: 2700
Heat Index: 35°   Visibility: 10mi
Dew Point: 24°   Wind: 8mph
Humidity: 64%   Direction: 280°W
Pressure: 30.07"   Gusts: NA
Location:  40.4949°N, 76.8115°W
Report Text: KMUI 190058Z AUTO 28007KT 10SM OVC027 02/M04 A3007 RMK AO2 SLP190 T00161045
Loading
Personal Weather Stations






























Interactive Weather Map New forecast layout! Learn more

10-Day Weather Forecast

Advertisements
Track Severe Weather on mobile